createdAt,value
2017-09-17T00:00:59.073Z,1007.1
2017-09-17T00:01:59.715Z,1007.1
2017-09-17T00:03:00.355Z,1007.1
2017-09-17T00:04:00.999Z,1007.1
2017-09-17T00:05:01.641Z,1007.1
2017-09-17T00:06:02.283Z,1007.1
2017-09-17T00:07:02.924Z,1007.2
2017-09-17T00:08:03.821Z,1007.1
2017-09-17T00:09:04.463Z,1007.1
2017-09-17T00:10:05.105Z,1007.1
2017-09-17T00:11:05.745Z,1007.1
2017-09-17T00:12:06.407Z,1007.1
2017-09-17T00:13:07.049Z,1007.1
2017-09-17T00:14:07.691Z,1007.1
2017-09-17T00:15:08.333Z,1007.1
2017-09-17T00:16:08.973Z,1007.1
2017-09-17T00:17:09.614Z,1007.0
2017-09-17T00:18:10.255Z,1007.1
2017-09-17T00:19:10.897Z,1007.1
2017-09-17T00:20:11.538Z,1007.0
2017-09-17T00:21:12.180Z,1007.0
2017-09-17T00:22:12.821Z,1007.0
2017-09-17T00:23:13.712Z,1007.0
2017-09-17T00:24:14.352Z,1007.0
2017-09-17T00:25:14.990Z,1007.0
2017-09-17T00:26:15.630Z,1007.0
2017-09-17T00:27:16.270Z,1007.0
2017-09-17T00:28:16.912Z,1007.0
2017-09-17T00:29:17.552Z,1007.0
2017-09-17T00:30:18.193Z,1007.0
2017-09-17T00:31:18.834Z,1007.0
2017-09-17T00:32:19.501Z,1007.0
2017-09-17T00:33:20.121Z,1007.0
2017-09-17T00:34:20.762Z,1007.0
2017-09-17T00:35:21.402Z,1007.0
2017-09-17T00:36:22.044Z,1007.0
2017-09-17T00:37:22.684Z,1007.0
2017-09-17T00:38:23.426Z,1007.0
2017-09-17T00:39:24.066Z,1007.0
2017-09-17T00:40:24.706Z,1007.0
2017-09-17T00:41:25.347Z,1007.0
2017-09-17T00:42:25.987Z,1007.0
2017-09-17T00:43:26.628Z,1007.0
2017-09-17T00:44:27.269Z,1007.0
2017-09-17T00:45:27.910Z,1007.0
2017-09-17T00:46:28.549Z,1007.0
2017-09-17T00:47:29.188Z,1007.0
2017-09-17T00:48:29.830Z,1007.0
2017-09-17T00:49:30.471Z,1007.0
2017-09-17T00:50:31.113Z,1006.9
2017-09-17T00:51:31.758Z,1007.0
2017-09-17T00:52:32.396Z,1006.9
2017-09-17T00:53:33.288Z,1007.0
2017-09-17T00:54:33.929Z,1007.0
2017-09-17T00:55:34.570Z,1007.0
2017-09-17T00:56:35.210Z,1007.0
2017-09-17T00:57:35.850Z,1007.0
2017-09-17T00:58:36.491Z,1007.0
2017-09-17T00:59:37.131Z,1007.1
2017-09-17T01:00:37.773Z,1007.1
2017-09-17T01:01:38.412Z,1007.0
2017-09-17T01:02:39.053Z,1007.0
2017-09-17T01:03:39.694Z,1007.0
2017-09-17T01:04:40.335Z,1007.0
2017-09-17T01:05:40.977Z,1007.0
2017-09-17T01:06:41.617Z,1007.0
2017-09-17T01:07:42.260Z,1007.0
2017-09-17T01:08:43.151Z,1007.0
2017-09-17T01:09:43.800Z,1007.0
2017-09-17T01:10:44.435Z,1007.0
2017-09-17T01:11:45.077Z,1007.0
2017-09-17T01:12:45.719Z,1007.0
2017-09-17T01:13:46.361Z,1007.0
2017-09-17T01:14:47.001Z,1007.0
2017-09-17T01:15:47.643Z,1007.0
2017-09-17T01:16:48.285Z,1006.9
2017-09-17T01:17:48.928Z,1007.0
2017-09-17T01:18:49.569Z,1007.0
2017-09-17T01:19:50.210Z,1006.9
2017-09-17T01:20:50.851Z,1007.0
2017-09-17T01:21:51.494Z,1006.9
2017-09-17T01:22:52.140Z,1007.0
2017-09-17T01:23:53.027Z,1007.0
2017-09-17T01:24:53.670Z,1006.9
2017-09-17T01:25:54.314Z,1007.0
2017-09-17T01:26:54.956Z,1007.0
2017-09-17T01:27:55.595Z,1007.0
2017-09-17T01:28:56.235Z,1007.0
2017-09-17T01:29:56.875Z,1007.0
2017-09-17T01:30:57.515Z,1007.0
2017-09-17T01:31:58.154Z,1007.0
2017-09-17T01:32:58.795Z,1007.0
2017-09-17T01:33:59.435Z,1007.0
2017-09-17T01:35:00.078Z,1007.0
2017-09-17T01:36:00.717Z,1007.0
2017-09-17T01:37:01.361Z,1007.0
2017-09-17T01:38:02.001Z,1007.0
2017-09-17T01:39:02.742Z,1007.0
2017-09-17T01:40:03.384Z,1007.0
2017-09-17T01:41:04.024Z,1007.0
2017-09-17T01:42:04.663Z,1007.0
2017-09-17T01:43:05.303Z,1007.0
2017-09-17T01:44:05.944Z,1007.0
2017-09-17T01:45:06.582Z,1007.0
2017-09-17T01:46:07.222Z,1007.0
2017-09-17T01:47:07.865Z,1007.0
2017-09-17T01:48:08.505Z,1007.0
2017-09-17T01:49:09.146Z,1007.0
2017-09-17T01:50:09.786Z,1007.0
2017-09-17T01:51:10.430Z,1007.0
2017-09-17T01:52:11.088Z,1007.0
2017-09-17T01:53:11.729Z,1007.0
2017-09-17T01:54:12.621Z,1007.0
2017-09-17T01:55:13.261Z,1006.9
2017-09-17T01:56:13.901Z,1006.9
2017-09-17T01:57:14.541Z,1006.9
2017-09-17T01:58:15.181Z,1007.0
2017-09-17T01:59:15.821Z,1006.9
2017-09-17T02:00:16.460Z,1007.0
2017-09-17T02:01:17.103Z,1007.0
2017-09-17T02:02:17.744Z,1007.0
2017-09-17T02:03:18.386Z,1007.0
2017-09-17T02:04:19.027Z,1007.0
2017-09-17T02:05:19.668Z,1007.0
2017-09-17T02:06:20.310Z,1007.0
2017-09-17T02:07:20.954Z,1007.0
2017-09-17T02:08:21.592Z,1006.9
2017-09-17T02:09:22.483Z,1007.0
2017-09-17T02:10:23.124Z,1007.0
2017-09-17T02:11:23.763Z,1007.0
2017-09-17T02:12:24.402Z,1006.9
2017-09-17T02:13:25.043Z,1007.0
2017-09-17T02:14:25.688Z,1007.0
2017-09-17T02:15:26.324Z,1006.9
2017-09-17T02:16:26.967Z,1006.9
2017-09-17T02:17:27.608Z,1006.9
2017-09-17T02:18:28.251Z,1007.0
2017-09-17T02:19:28.889Z,1007.0
2017-09-17T02:20:29.531Z,1007.0
2017-09-17T02:21:30.171Z,1007.0
2017-09-17T02:22:30.813Z,1007.0
2017-09-17T02:23:31.453Z,1007.0
2017-09-17T02:24:32.195Z,1007.0
2017-09-17T02:25:32.835Z,1007.0
2017-09-17T02:26:33.474Z,1007.0
2017-09-17T02:27:34.114Z,1007.0
2017-09-17T02:28:34.755Z,1007.0
2017-09-17T02:29:35.396Z,1007.0
2017-09-17T02:30:36.036Z,1007.0
2017-09-17T02:31:36.676Z,1007.0
2017-09-17T02:32:37.318Z,1007.0
2017-09-17T02:33:37.959Z,1007.0
2017-09-17T02:34:38.600Z,1007.0
2017-09-17T02:35:39.239Z,1007.1
2017-09-17T02:36:39.882Z,1007.0
2017-09-17T02:37:40.523Z,1007.0
2017-09-17T02:38:41.167Z,1007.0
2017-09-17T02:39:41.918Z,1007.0
2017-09-17T02:40:42.550Z,1007.0
2017-09-17T02:41:43.191Z,1007.1
2017-09-17T02:42:43.833Z,1007.1
2017-09-17T02:43:44.474Z,1007.1
2017-09-17T02:44:45.114Z,1007.1
2017-09-17T02:45:45.753Z,1007.1
2017-09-17T02:46:46.394Z,1007.1
2017-09-17T02:47:47.035Z,1007.1
2017-09-17T02:48:47.676Z,1007.1
2017-09-17T02:49:48.316Z,1007.0
2017-09-17T02:50:48.958Z,1007.0
2017-09-17T02:51:49.597Z,1007.0
2017-09-17T02:52:50.240Z,1007.1
2017-09-17T02:53:50.880Z,1007.1
2017-09-17T02:54:51.774Z,1007.1
2017-09-17T02:55:52.419Z,1007.0
2017-09-17T02:56:53.062Z,1007.0
2017-09-17T02:57:53.702Z,1007.0
2017-09-17T02:58:54.345Z,1007.0
2017-09-17T02:59:54.985Z,1007.1
2017-09-17T03:00:55.628Z,1007.1
2017-09-17T03:01:56.267Z,1007.1
2017-09-17T03:02:56.909Z,1007.1
2017-09-17T03:03:57.550Z,1007.0
2017-09-17T03:04:58.192Z,1007.1
2017-09-17T03:05:58.833Z,1007.1
2017-09-17T03:06:59.475Z,1007.0
2017-09-17T03:08:00.115Z,1007.0
2017-09-17T03:09:00.763Z,1007.1
2017-09-17T03:10:01.651Z,1007.1
2017-09-17T03:11:02.289Z,1007.0
2017-09-17T03:12:03.062Z,1007.0
2017-09-17T03:13:03.701Z,1007.0
2017-09-17T03:14:04.342Z,1007.0
2017-09-17T03:15:04.982Z,1007.1
2017-09-17T03:16:05.625Z,1007.0
2017-09-17T03:17:06.262Z,1007.0
2017-09-17T03:18:06.904Z,1007.0
2017-09-17T03:19:07.543Z,1007.0
2017-09-17T03:20:08.185Z,1007.0
2017-09-17T03:21:08.825Z,1007.0
2017-09-17T03:22:09.467Z,1007.0
2017-09-17T03:23:10.107Z,1007.0
2017-09-17T03:24:10.748Z,1007.0
2017-09-17T03:25:11.540Z,1007.0
2017-09-17T03:26:12.181Z,1007.0
2017-09-17T03:27:12.823Z,1007.0
2017-09-17T03:28:13.465Z,1007.1
2017-09-17T03:29:14.107Z,1007.0
2017-09-17T03:30:14.749Z,1007.1
2017-09-17T03:31:15.391Z,1007.1
2017-09-17T03:32:16.030Z,1007.1
2017-09-17T03:33:16.673Z,1007.1
2017-09-17T03:34:17.314Z,1007.0
2017-09-17T03:35:17.955Z,1007.1
2017-09-17T03:36:18.596Z,1007.1
2017-09-17T03:37:19.239Z,1007.1
2017-09-17T03:38:19.879Z,1007.1
2017-09-17T03:39:20.521Z,1007.1
2017-09-17T03:40:21.412Z,1007.1
2017-09-17T03:41:22.052Z,1007.1
2017-09-17T03:42:22.690Z,1007.1
2017-09-17T03:43:23.331Z,1007.1
2017-09-17T03:44:23.972Z,1007.1
2017-09-17T03:45:24.616Z,1007.1
2017-09-17T03:46:25.255Z,1007.1
2017-09-17T03:47:25.894Z,1007.1
2017-09-17T03:48:26.536Z,1007.1
2017-09-17T03:49:27.176Z,1007.1
2017-09-17T03:50:27.819Z,1007.2
2017-09-17T03:51:28.458Z,1007.1
2017-09-17T03:52:29.099Z,1007.1
2017-09-17T03:53:29.744Z,1007.1
2017-09-17T03:54:30.388Z,1007.1
2017-09-17T03:55:31.278Z,1007.1
2017-09-17T03:56:31.921Z,1007.1
2017-09-17T03:57:32.559Z,1007.1
2017-09-17T03:58:33.199Z,1007.0
2017-09-17T03:59:33.839Z,1007.0
2017-09-17T04:00:34.479Z,1007.0
2017-09-17T04:01:35.118Z,1007.0
2017-09-17T04:02:35.758Z,1007.1
2017-09-17T04:03:36.399Z,1007.0
2017-09-17T04:04:37.041Z,1007.0
2017-09-17T04:05:37.682Z,1007.0
2017-09-17T04:06:38.322Z,1007.0
2017-09-17T04:07:38.963Z,1007.0
2017-09-17T04:08:39.604Z,1007.0
2017-09-17T04:09:40.247Z,1007.0
2017-09-17T04:10:41.137Z,1007.0
2017-09-17T04:11:41.779Z,1007.0
2017-09-17T04:12:42.420Z,1007.0
2017-09-17T04:13:43.062Z,1007.0
2017-09-17T04:14:43.703Z,1007.0
2017-09-17T04:15:44.345Z,1007.0
2017-09-17T04:16:44.987Z,1007.0
2017-09-17T04:17:45.631Z,1007.0
2017-09-17T04:18:46.269Z,1007.0
2017-09-17T04:19:46.912Z,1007.0
2017-09-17T04:20:47.553Z,1007.0
2017-09-17T04:21:48.195Z,1007.0
2017-09-17T04:22:48.836Z,1007.0
2017-09-17T04:23:49.478Z,1007.0
2017-09-17T04:24:50.118Z,1007.0
2017-09-17T04:25:50.858Z,1007.0
2017-09-17T04:26:51.498Z,1007.0
2017-09-17T04:27:52.139Z,1007.0
2017-09-17T04:28:52.781Z,1007.1
2017-09-17T04:29:53.423Z,1007.1
2017-09-17T04:30:54.063Z,1007.1
2017-09-17T04:31:54.704Z,1007.1
2017-09-17T04:32:55.343Z,1007.1
2017-09-17T04:33:55.985Z,1007.1
2017-09-17T04:34:56.626Z,1007.1
2017-09-17T04:35:57.269Z,1007.1
2017-09-17T04:36:57.915Z,1007.1
2017-09-17T04:37:58.557Z,1007.1
2017-09-17T04:38:59.198Z,1007.1
2017-09-17T04:39:59.841Z,1007.1
2017-09-17T04:41:00.732Z,1007.2
2017-09-17T04:42:01.373Z,1007.2
2017-09-17T04:43:02.015Z,1007.2
2017-09-17T04:44:02.661Z,1007.2
2017-09-17T04:45:03.299Z,1007.2
2017-09-17T04:46:03.941Z,1007.2
2017-09-17T04:47:04.586Z,1007.2
2017-09-17T04:48:05.224Z,1007.2
2017-09-17T04:49:05.865Z,1007.2
2017-09-17T04:50:06.508Z,1007.2
2017-09-17T04:51:07.147Z,1007.2
2017-09-17T04:52:07.827Z,1007.2
2017-09-17T04:53:08.468Z,1007.2
2017-09-17T04:54:09.108Z,1007.2
2017-09-17T04:55:09.747Z,1007.2
2017-09-17T04:56:10.488Z,1007.2
2017-09-17T04:57:11.127Z,1007.2
2017-09-17T04:58:11.771Z,1007.3
2017-09-17T04:59:12.410Z,1007.3
2017-09-17T05:00:13.052Z,1007.3
2017-09-17T05:01:13.693Z,1007.3
2017-09-17T05:02:14.335Z,1007.3
2017-09-17T05:03:14.983Z,1007.3
2017-09-17T05:04:15.616Z,1007.3
2017-09-17T05:05:16.257Z,1007.4
2017-09-17T05:06:16.899Z,1007.3
2017-09-17T05:07:17.538Z,1007.4
2017-09-17T05:08:18.181Z,1007.4
2017-09-17T05:09:18.823Z,1007.4
2017-09-17T05:10:19.465Z,1007.4
2017-09-17T05:11:20.205Z,1007.4
2017-09-17T05:12:20.909Z,1007.4
2017-09-17T05:13:21.607Z,1007.5
2017-09-17T05:14:22.249Z,1007.4
2017-09-17T05:15:22.889Z,1007.5
2017-09-17T05:16:23.530Z,1007.5
2017-09-17T05:17:24.171Z,1007.5
2017-09-17T05:18:24.812Z,1007.5
2017-09-17T05:19:25.454Z,1007.5
2017-09-17T05:20:26.096Z,1007.5
2017-09-17T05:21:26.736Z,1007.5
2017-09-17T05:22:27.379Z,1007.5
2017-09-17T05:23:28.025Z,1007.5
2017-09-17T05:24:28.662Z,1007.5
2017-09-17T05:25:29.303Z,1007.5
2017-09-17T05:26:30.096Z,1007.5
2017-09-17T05:27:30.738Z,1007.5
2017-09-17T05:28:31.378Z,1007.5
2017-09-17T05:29:32.020Z,1007.5
2017-09-17T05:30:32.663Z,1007.5
2017-09-17T05:31:33.304Z,1007.6
2017-09-17T05:32:33.944Z,1007.5
2017-09-17T05:33:34.587Z,1007.5
2017-09-17T05:34:35.229Z,1007.6
2017-09-17T05:35:35.870Z,1007.6
2017-09-17T05:36:36.517Z,1007.6
2017-09-17T05:37:37.152Z,1007.6
2017-09-17T05:38:37.795Z,1007.6
2017-09-17T05:39:38.438Z,1007.6
2017-09-17T05:40:39.079Z,1007.6
2017-09-17T05:41:39.820Z,1007.6
2017-09-17T05:42:40.469Z,1007.6
2017-09-17T05:43:41.110Z,1007.6
2017-09-17T05:44:41.752Z,1007.6
2017-09-17T05:45:42.393Z,1007.6
2017-09-17T05:46:43.035Z,1007.6
2017-09-17T05:47:43.676Z,1007.6
2017-09-17T05:48:44.317Z,1007.6
2017-09-17T05:49:44.959Z,1007.6
2017-09-17T05:50:45.600Z,1007.6
2017-09-17T05:51:46.240Z,1007.6
2017-09-17T05:52:46.882Z,1007.6
2017-09-17T05:53:47.523Z,1007.6
2017-09-17T05:54:48.165Z,1007.6
2017-09-17T05:55:48.805Z,1007.6
2017-09-17T05:56:49.447Z,1007.6
2017-09-17T05:57:50.095Z,1007.6
2017-09-17T05:58:50.731Z,1007.6
2017-09-17T05:59:51.372Z,1007.6
2017-09-17T06:00:52.014Z,1007.6
2017-09-17T06:01:52.653Z,1007.7
2017-09-17T06:02:53.295Z,1007.6
2017-09-17T06:03:53.938Z,1007.7
2017-09-17T06:04:54.588Z,1007.6
2017-09-17T06:05:55.225Z,1007.6
2017-09-17T06:06:55.866Z,1007.7
2017-09-17T06:07:56.507Z,1007.7
2017-09-17T06:08:57.150Z,1007.7
2017-09-17T06:09:57.791Z,1007.7
2017-09-17T06:10:58.433Z,1007.8
2017-09-17T06:11:59.324Z,1007.8
2017-09-17T06:12:59.964Z,1007.7
2017-09-17T06:14:00.606Z,1007.8
2017-09-17T06:15:01.247Z,1007.8
2017-09-17T06:16:01.886Z,1007.8
2017-09-17T06:17:02.529Z,1007.8
2017-09-17T06:18:03.167Z,1007.8
2017-09-17T06:19:03.804Z,1007.8
2017-09-17T06:20:04.446Z,1007.9
2017-09-17T06:21:05.085Z,1007.9
2017-09-17T06:22:05.726Z,1007.9
2017-09-17T06:23:06.366Z,1007.9
2017-09-17T06:24:07.009Z,1007.9
2017-09-17T06:25:07.648Z,1007.9
2017-09-17T06:26:08.310Z,1007.9
2017-09-17T06:27:09.181Z,1007.9
2017-09-17T06:28:09.822Z,1007.9
2017-09-17T06:29:10.462Z,1008.0
2017-09-17T06:30:11.103Z,1008.0
2017-09-17T06:31:11.741Z,1008.0
2017-09-17T06:32:12.476Z,1008.0
2017-09-17T06:33:13.116Z,1008.0
2017-09-17T06:34:13.758Z,1008.0
2017-09-17T06:35:14.398Z,1008.0
2017-09-17T06:36:15.038Z,1008.0
2017-09-17T06:37:15.679Z,1007.9
2017-09-17T06:38:16.318Z,1008.0
2017-09-17T06:39:16.958Z,1008.0
2017-09-17T06:40:17.597Z,1008.1
2017-09-17T06:41:18.237Z,1008.0
2017-09-17T06:42:18.877Z,1008.0
2017-09-17T06:43:19.520Z,1008.1
2017-09-17T06:44:20.158Z,1008.0
2017-09-17T06:45:20.800Z,1008.0
2017-09-17T06:46:21.441Z,1008.0
2017-09-17T06:47:22.083Z,1008.0
2017-09-17T06:48:22.724Z,1008.1
2017-09-17T06:49:23.366Z,1008.1
2017-09-17T06:50:24.005Z,1008.1
2017-09-17T06:51:24.647Z,1008.1
2017-09-17T06:52:25.299Z,1008.1
2017-09-17T06:53:25.935Z,1008.1
2017-09-17T06:54:26.576Z,1008.1
2017-09-17T06:55:27.216Z,1008.2
2017-09-17T06:56:27.856Z,1008.2
2017-09-17T06:57:28.748Z,1008.1
2017-09-17T06:58:29.391Z,1008.1
2017-09-17T06:59:30.034Z,1008.1
2017-09-17T07:00:30.675Z,1008.1
2017-09-17T07:01:31.318Z,1008.1
2017-09-17T07:02:31.959Z,1008.1
2017-09-17T07:03:32.599Z,1008.1
2017-09-17T07:04:33.240Z,1008.1
2017-09-17T07:05:33.880Z,1008.1
2017-09-17T07:06:34.520Z,1008.1
2017-09-17T07:07:35.159Z,1008.1
2017-09-17T07:08:35.799Z,1008.1
2017-09-17T07:09:36.440Z,1008.1
2017-09-17T07:10:37.080Z,1008.1
2017-09-17T07:11:37.721Z,1008.2
2017-09-17T07:12:38.461Z,1008.2
2017-09-17T07:13:39.102Z,1008.2
2017-09-17T07:14:39.744Z,1008.2
2017-09-17T07:15:40.385Z,1008.2
2017-09-17T07:16:41.026Z,1008.2
2017-09-17T07:17:41.668Z,1008.2
2017-09-17T07:18:42.308Z,1008.2
2017-09-17T07:19:42.951Z,1008.2
2017-09-17T07:20:43.592Z,1008.3
2017-09-17T07:21:44.235Z,1008.2
2017-09-17T07:22:44.876Z,1008.3
2017-09-17T07:23:45.517Z,1008.3
2017-09-17T07:24:46.158Z,1008.3
2017-09-17T07:25:46.800Z,1008.3
2017-09-17T07:26:47.441Z,1008.3
2017-09-17T07:27:48.183Z,1008.3
2017-09-17T07:28:48.823Z,1008.3
2017-09-17T07:29:49.463Z,1008.3
2017-09-17T07:30:50.103Z,1008.3
2017-09-17T07:31:50.744Z,1008.3
2017-09-17T07:32:51.384Z,1008.3
2017-09-17T07:33:52.027Z,1008.3
2017-09-17T07:34:52.667Z,1008.3
2017-09-17T07:35:53.309Z,1008.3
2017-09-17T07:36:53.948Z,1008.3
2017-09-17T07:37:54.590Z,1008.3
2017-09-17T07:38:55.231Z,1008.3
2017-09-17T07:39:55.873Z,1008.3
2017-09-17T07:40:56.512Z,1008.3
2017-09-17T07:41:57.154Z,1008.3
2017-09-17T07:42:57.796Z,1008.2
2017-09-17T07:43:58.437Z,1008.3
2017-09-17T07:44:59.079Z,1008.3
2017-09-17T07:45:59.721Z,1008.3
2017-09-17T07:47:00.361Z,1008.3
2017-09-17T07:48:01.004Z,1008.3
2017-09-17T07:49:01.645Z,1008.3
2017-09-17T07:50:02.287Z,1008.3
2017-09-17T07:51:02.928Z,1008.3
2017-09-17T07:52:03.568Z,1008.4
2017-09-17T07:53:04.337Z,1008.4
2017-09-17T07:54:04.977Z,1008.4
2017-09-17T07:55:05.617Z,1008.4
2017-09-17T07:56:06.258Z,1008.4
2017-09-17T07:57:06.897Z,1008.4
2017-09-17T07:58:07.688Z,1008.3
2017-09-17T07:59:08.334Z,1008.4
2017-09-17T08:00:08.973Z,1008.4
2017-09-17T08:01:09.615Z,1008.4
2017-09-17T08:02:10.256Z,1008.4
2017-09-17T08:03:10.896Z,1008.3
2017-09-17T08:04:11.537Z,1008.4
2017-09-17T08:05:12.177Z,1008.3
2017-09-17T08:06:12.818Z,1008.3
2017-09-17T08:07:13.457Z,1008.3
2017-09-17T08:08:14.098Z,1008.3
2017-09-17T08:09:14.737Z,1008.3
2017-09-17T08:10:15.378Z,1008.3
2017-09-17T08:11:16.018Z,1008.3
2017-09-17T08:12:16.678Z,1008.3
2017-09-17T08:13:18.522Z,1008.3
2017-09-17T08:14:19.161Z,1008.3
2017-09-17T08:15:19.803Z,1008.3
2017-09-17T08:16:20.443Z,1008.3
2017-09-17T08:17:21.087Z,1008.3
2017-09-17T08:18:21.726Z,1008.3
2017-09-17T08:19:22.367Z,1008.4
2017-09-17T08:20:23.007Z,1008.4
2017-09-17T08:21:23.649Z,1008.3
2017-09-17T08:22:24.290Z,1008.4
2017-09-17T08:23:24.932Z,1008.3
2017-09-17T08:24:25.573Z,1008.3
2017-09-17T08:25:26.215Z,1008.3
2017-09-17T08:26:26.855Z,1008.3
2017-09-17T08:27:27.497Z,1008.3
2017-09-17T08:28:28.239Z,1008.3
2017-09-17T08:29:28.878Z,1008.3
2017-09-17T08:30:29.518Z,1008.3
2017-09-17T08:31:30.157Z,1008.3
2017-09-17T08:32:30.796Z,1008.3
2017-09-17T08:33:31.453Z,1008.3
2017-09-17T08:34:32.079Z,1008.4
2017-09-17T08:35:32.719Z,1008.4
2017-09-17T08:36:33.365Z,1008.4
2017-09-17T08:37:34.000Z,1008.4
2017-09-17T08:38:34.640Z,1008.4
2017-09-17T08:39:35.282Z,1008.4
2017-09-17T08:40:35.923Z,1008.4
2017-09-17T08:41:36.562Z,1008.4
2017-09-17T08:42:37.206Z,1008.4
2017-09-17T08:43:38.102Z,1008.4
2017-09-17T08:44:38.744Z,1008.4
2017-09-17T08:45:39.386Z,1008.4
2017-09-17T08:46:40.026Z,1008.3
2017-09-17T08:47:40.668Z,1008.3
2017-09-17T08:48:41.309Z,1008.4
2017-09-17T08:49:41.951Z,1008.3
2017-09-17T08:50:42.594Z,1008.3
2017-09-17T08:51:43.240Z,1008.3
2017-09-17T08:52:43.879Z,1008.3
2017-09-17T08:53:44.522Z,1008.3
2017-09-17T08:54:45.161Z,1008.3
2017-09-17T08:55:45.803Z,1008.3
2017-09-17T08:56:46.443Z,1008.3
2017-09-17T08:57:47.087Z,1008.3
2017-09-17T08:58:48.677Z,1008.3
2017-09-17T08:59:49.317Z,1008.3
2017-09-17T09:00:49.964Z,1008.3
2017-09-17T09:01:50.597Z,1008.3
2017-09-17T09:02:51.236Z,1008.3
2017-09-17T09:03:51.878Z,1008.2
2017-09-17T09:04:52.518Z,1008.2
2017-09-17T09:05:53.161Z,1008.2
2017-09-17T09:06:53.800Z,1008.2
2017-09-17T09:07:54.443Z,1008.2
2017-09-17T09:08:55.082Z,1008.2
2017-09-17T09:09:55.725Z,1008.2
2017-09-17T09:10:56.365Z,1008.2
2017-09-17T09:11:57.007Z,1008.2
2017-09-17T09:12:57.647Z,1008.2
2017-09-17T09:13:58.539Z,1008.2
2017-09-17T09:14:59.179Z,1008.2
2017-09-17T09:15:59.820Z,1008.2
2017-09-17T09:17:00.459Z,1008.2
2017-09-17T09:18:01.099Z,1008.2
2017-09-17T09:19:01.740Z,1008.2
2017-09-17T09:20:02.381Z,1008.2
2017-09-17T09:21:03.021Z,1008.1
2017-09-17T09:22:03.662Z,1008.1
2017-09-17T09:23:04.302Z,1008.1
2017-09-17T09:24:04.943Z,1008.1
2017-09-17T09:25:05.584Z,1008.1
2017-09-17T09:26:06.223Z,1008.1
2017-09-17T09:27:06.865Z,1008.1
2017-09-17T09:28:07.505Z,1008.1
2017-09-17T09:29:08.398Z,1008.1
2017-09-17T09:30:09.036Z,1008.1
2017-09-17T09:31:09.677Z,1008.1
2017-09-17T09:32:10.365Z,1008.1
2017-09-17T09:33:11.067Z,1008.1
2017-09-17T09:34:11.707Z,1008.1
2017-09-17T09:35:12.347Z,1008.0
2017-09-17T09:36:12.987Z,1008.0
2017-09-17T09:37:13.628Z,1008.0
2017-09-17T09:38:14.268Z,1008.0
2017-09-17T09:39:14.910Z,1008.0
2017-09-17T09:40:15.550Z,1008.0
2017-09-17T09:41:16.195Z,1008.0
2017-09-17T09:42:16.839Z,1008.0
2017-09-17T09:43:17.481Z,1008.0
2017-09-17T09:44:18.220Z,1008.0
2017-09-17T09:45:18.861Z,1008.0
2017-09-17T09:46:19.503Z,1008.0
2017-09-17T09:47:20.144Z,1007.9
2017-09-17T09:48:20.786Z,1008.0
2017-09-17T09:49:21.429Z,1007.9
2017-09-17T09:50:22.070Z,1007.9
2017-09-17T09:51:22.710Z,1007.9
2017-09-17T09:52:23.352Z,1007.9
2017-09-17T09:53:23.993Z,1007.9
2017-09-17T09:54:24.639Z,1007.9
2017-09-17T09:55:25.277Z,1007.9
2017-09-17T09:56:25.920Z,1007.9
2017-09-17T09:57:26.560Z,1007.9
2017-09-17T09:58:27.203Z,1007.9
2017-09-17T09:59:28.093Z,1007.9
2017-09-17T10:00:28.733Z,1007.9
2017-09-17T10:01:29.372Z,1007.9
2017-09-17T10:02:30.012Z,1007.9
2017-09-17T10:03:30.652Z,1007.9
2017-09-17T10:04:31.291Z,1007.9
2017-09-17T10:05:31.931Z,1007.9
2017-09-17T10:06:32.572Z,1007.9
2017-09-17T10:07:33.213Z,1007.9
2017-09-17T10:08:33.854Z,1007.9
2017-09-17T10:09:34.495Z,1007.9
2017-09-17T10:10:35.135Z,1007.9
2017-09-17T10:11:35.775Z,1007.9
2017-09-17T10:12:36.416Z,1007.9
2017-09-17T10:13:37.059Z,1007.9
2017-09-17T10:14:37.950Z,1007.8
2017-09-17T10:15:38.590Z,1007.9
2017-09-17T10:16:39.230Z,1007.8
2017-09-17T10:17:39.869Z,1007.8
2017-09-17T10:18:40.516Z,1007.8
2017-09-17T10:19:41.155Z,1007.8
2017-09-17T10:20:41.794Z,1007.8
2017-09-17T10:21:42.434Z,1007.8
2017-09-17T10:22:43.075Z,1007.8
2017-09-17T10:23:43.717Z,1007.7
2017-09-17T10:24:44.357Z,1007.8
2017-09-17T10:25:44.995Z,1007.7
2017-09-17T10:26:45.637Z,1007.7
2017-09-17T10:27:46.277Z,1007.7
2017-09-17T10:28:46.920Z,1007.7
2017-09-17T10:29:47.709Z,1007.7
2017-09-17T10:30:48.350Z,1007.7
2017-09-17T10:31:48.993Z,1007.7
2017-09-17T10:32:49.632Z,1007.7
2017-09-17T10:33:50.273Z,1007.7
2017-09-17T10:34:50.914Z,1007.7
2017-09-17T10:35:51.557Z,1007.7
2017-09-17T10:36:52.197Z,1007.7
2017-09-17T10:37:52.839Z,1007.7
2017-09-17T10:38:53.481Z,1007.7
2017-09-17T10:39:54.123Z,1007.7
2017-09-17T10:40:54.764Z,1007.7
2017-09-17T10:41:55.406Z,1007.7
2017-09-17T10:42:56.047Z,1007.7
2017-09-17T10:43:56.688Z,1007.7
2017-09-17T10:44:57.581Z,1007.7
2017-09-17T10:45:58.221Z,1007.7
2017-09-17T10:46:58.860Z,1007.7
2017-09-17T10:47:59.500Z,1007.7
2017-09-17T10:49:00.140Z,1007.7
2017-09-17T10:50:00.779Z,1007.7
2017-09-17T10:51:01.420Z,1007.7
2017-09-17T10:52:02.060Z,1007.7
2017-09-17T10:53:02.702Z,1007.7
2017-09-17T10:54:03.344Z,1007.7
2017-09-17T10:55:03.984Z,1007.7
2017-09-17T10:56:04.624Z,1007.6
2017-09-17T10:57:05.267Z,1007.6
2017-09-17T10:58:05.914Z,1007.6
2017-09-17T10:59:06.554Z,1007.7
2017-09-17T11:00:07.195Z,1007.7
2017-09-17T11:01:07.835Z,1007.6
2017-09-17T11:02:08.474Z,1007.6
2017-09-17T11:03:09.113Z,1007.6
2017-09-17T11:04:09.756Z,1007.6
2017-09-17T11:05:10.399Z,1007.6
2017-09-17T11:06:11.038Z,1007.5
2017-09-17T11:07:11.679Z,1007.6
2017-09-17T11:08:12.319Z,1007.6
2017-09-17T11:09:12.962Z,1007.5
2017-09-17T11:10:13.603Z,1007.5
2017-09-17T11:11:14.248Z,1007.5
2017-09-17T11:12:14.908Z,1007.5
2017-09-17T11:13:15.549Z,1007.5
2017-09-17T11:14:16.190Z,1007.5
2017-09-17T11:15:17.081Z,1007.5
2017-09-17T11:16:17.721Z,1007.5
2017-09-17T11:17:18.361Z,1007.5
2017-09-17T11:18:19.000Z,1007.5
2017-09-17T11:19:19.639Z,1007.5
2017-09-17T11:20:20.280Z,1007.5
2017-09-17T11:21:20.921Z,1007.4
2017-09-17T11:22:21.561Z,1007.4
2017-09-17T11:23:22.203Z,1007.5
2017-09-17T11:24:22.841Z,1007.4
2017-09-17T11:25:23.487Z,1007.4
2017-09-17T11:26:24.130Z,1007.4
2017-09-17T11:27:24.772Z,1007.4
2017-09-17T11:28:25.411Z,1007.4
2017-09-17T11:29:26.053Z,1007.4
2017-09-17T11:30:26.842Z,1007.4
2017-09-17T11:31:27.482Z,1007.4
2017-09-17T11:32:28.124Z,1007.4
2017-09-17T11:33:28.763Z,1007.4
2017-09-17T11:34:29.404Z,1007.3
2017-09-17T11:35:30.045Z,1007.3
2017-09-17T11:36:30.686Z,1007.3
2017-09-17T11:37:31.327Z,1007.3
2017-09-17T11:38:31.969Z,1007.3
2017-09-17T11:39:32.611Z,1007.3
2017-09-17T11:40:33.254Z,1007.3
2017-09-17T11:41:33.895Z,1007.2
2017-09-17T11:42:34.537Z,1007.2
2017-09-17T11:43:35.176Z,1007.2
2017-09-17T11:44:35.818Z,1007.2
2017-09-17T11:45:36.609Z,1007.2
2017-09-17T11:46:37.251Z,1007.2
2017-09-17T11:47:37.891Z,1007.2
2017-09-17T11:48:38.533Z,1007.2
2017-09-17T11:49:39.175Z,1007.2
2017-09-17T11:50:39.817Z,1007.2
2017-09-17T11:51:40.460Z,1007.2
2017-09-17T11:52:41.100Z,1007.2
2017-09-17T11:53:41.745Z,1007.2
2017-09-17T11:54:42.385Z,1007.1
2017-09-17T11:55:43.027Z,1007.1
2017-09-17T11:56:43.666Z,1007.2
2017-09-17T11:57:44.309Z,1007.1
2017-09-17T11:58:44.951Z,1007.1
2017-09-17T11:59:45.593Z,1007.1
2017-09-17T12:00:46.333Z,1007.1
2017-09-17T12:01:46.973Z,1007.1
2017-09-17T12:02:47.613Z,1007.1
2017-09-17T12:03:48.252Z,1007.1
2017-09-17T12:04:48.890Z,1007.1
2017-09-17T12:05:49.531Z,1007.1
2017-09-17T12:06:50.171Z,1007.1
2017-09-17T12:07:50.812Z,1007.1
2017-09-17T12:08:51.452Z,1007.1
2017-09-17T12:09:52.094Z,1007.1
2017-09-17T12:10:52.734Z,1007.1
2017-09-17T12:11:53.375Z,1007.0
2017-09-17T12:12:54.015Z,1007.1
2017-09-17T12:13:54.656Z,1007.0
2017-09-17T12:14:55.298Z,1007.0
2017-09-17T12:15:56.190Z,1007.0
2017-09-17T12:16:56.830Z,1007.0
2017-09-17T12:17:57.472Z,1007.0
2017-09-17T12:18:58.110Z,1007.1
2017-09-17T12:19:58.750Z,1007.1
2017-09-17T12:20:59.390Z,1007.0
2017-09-17T12:22:00.031Z,1007.0
2017-09-17T12:23:00.673Z,1007.0
2017-09-17T12:24:01.314Z,1007.0
2017-09-17T12:25:01.956Z,1007.0
2017-09-17T12:26:02.610Z,1007.0
2017-09-17T12:27:03.239Z,1006.9
2017-09-17T12:28:03.877Z,1007.0
2017-09-17T12:29:04.518Z,1007.0
2017-09-17T12:30:05.159Z,1007.0
2017-09-17T12:31:06.052Z,1007.0
2017-09-17T12:32:06.736Z,1007.0
2017-09-17T12:33:07.377Z,1006.9
2017-09-17T12:34:08.017Z,1007.0
2017-09-17T12:35:08.658Z,1007.0
2017-09-17T12:36:09.296Z,1006.9
2017-09-17T12:37:09.935Z,1006.9